Brookhaven Weather

Current Time: 07:10 Zulu

HWV METARs

Local Time Temperature Dew Point Wind Direction Wind Speed Wind Gust Sky Vis.
10/30/2020 7:23:00 AM 8.3° c 6.1° c 10° 6 kt 16kt SCT 700 ft AGL 4.0 sm
10/30/2020 6:56:00 AM 8.3° c 6.1° c variable 6 kt 17kt BKN 800 ft AGL 3.0 sm
10/30/2020 6:45:00 AM 8.3° c 6.1° c variable 6 kt - BKN 800 ft AGL 3.0 sm
10/30/2020 6:33:00 AM 8.3° c 6.1° c 20° 8 kt 17kt BKN 800 ft AGL 2.5 sm
10/30/2020 5:56:00 AM 8.3° c 6.7° c 30° 6 kt 15kt OVC 800 ft AGL 4.0 sm
10/30/2020 4:56:00 AM 8.9° c 6.7° c 10° 8 kt 16kt BKN 800 ft AGL 4.0 sm
10/30/2020 3:56:00 AM 8.9° c 6.7° c 20° 9 kt 16kt OVC 900 ft AGL 4.0 sm

ISP TAF:

KISP 300638Z 3007/3106 02014G23KT 3SM -RA BR SCT008 OVC015 
FM301000 01020G27KT 3SM RA BR SCT008 OVC012 
FM301600 01018G25KT 3SM -RA BR SCT008 OVC012 
FM302000 36014G22KT P6SM BKN015 OVC050 
FM302200 36011KT P6SM SCT025 BKN035 
FM310100 35007KT P6SM SCT035
Weather data provided by aviationweather.gov. Pilots must verify weather before flying.